Time;durP1;ratioP1;P1;durP2;ratioP2;P2;SDS_P1;SDS_P2;PMS_P1;PMS_P2;Temp;Humidity;BMP_temperature;BMP_pressure;BME280_temperature;BME280_humidity;BME280_pressure;Samples;Min_cycle;Max_cycle;Signal;HPM_P1;HPM_P2
2021/07/29 00:01:45;;;;;;;;;;;17.80;72.50;;;;;;5032338;28;19971;-60
2021/07/29 00:04:10;;;;;;;;;;;17.90;72.50;;;;;;5032157;28;20397;-60
2021/07/29 00:06:36;;;;;;;;;;;17.90;72.30;;;;;;5031554;28;19921;-61
2021/07/29 00:09:02;;;;;;;;;;;17.90;72.30;;;;;;5032035;28;19917;-60
2021/07/29 00:11:28;;;;;;;;;;;17.90;72.30;;;;;;5032100;28;19959;-60
2021/07/29 00:13:57;;;;;;;;;;;17.90;72.20;;;;;;5031543;28;20389;-61
2021/07/29 00:16:24;;;;;;;;;;;17.80;72.00;;;;;;5031913;28;19921;-60
2021/07/29 00:19:08;;;;;;;;;;;17.70;72.00;;;;;;5031266;28;19924;-61
2021/07/29 00:23:24;;;;;;;;;;;17.60;71.70;;;;;;5056205;28;19927;-61
2021/07/29 00:25:49;;;;;;;;;;;17.60;72.30;;;;;;5057094;28;19917;-61
2021/07/29 00:28:15;;;;;;;;;;;17.50;72.30;;;;;;5068481;28;19992;-62
2021/07/29 00:30:41;;;;;;;;;;;17.50;72.40;;;;;;5068940;28;19966;-62
2021/07/29 00:33:06;;;;;;;;;;;17.50;72.60;;;;;;5068730;28;20369;-62
2021/07/29 00:35:32;;;;;;;;;;;17.40;72.60;;;;;;5068242;28;19917;-62
2021/07/29 00:38:01;;;;;;;;;;;17.40;72.70;;;;;;5068581;28;20007;-62
2021/07/29 00:40:26;;;;;;;;;;;17.40;72.70;;;;;;5068272;28;19974;-62
2021/07/29 00:42:52;;;;;;;;;;;17.30;72.80;;;;;;5067258;28;19925;-62
2021/07/29 00:45:17;;;;;;;;;;;17.30;72.90;;;;;;5068475;28;19965;-62
2021/07/29 00:47:44;;;;;;;;;;;17.30;73.00;;;;;;5050473;28;19969;-64
2021/07/29 00:50:10;;;;;;;;;;;17.30;73.10;;;;;;5068413;28;20285;-64
2021/07/29 00:52:36;;;;;;;;;;;17.20;73.10;;;;;;5067154;28;20002;-64
2021/07/29 00:55:02;;;;;;;;;;;17.20;73.40;;;;;;5066680;28;19979;-64
2021/07/29 00:57:27;;;;;;;;;;;17.20;73.50;;;;;;5068027;28;20344;-64
2021/07/29 00:59:53;;;;;;;;;;;17.20;73.60;;;;;;5067836;28;19951;-64
2021/07/29 01:02:19;;;;;;;;;;;17.20;73.70;;;;;;5068134;28;19956;-64
2021/07/29 01:04:45;;;;;;;;;;;17.20;73.80;;;;;;5066745;28;20365;-64
2021/07/29 01:07:10;;;;;;;;;;;17.20;73.80;;;;;;5067347;28;19923;-64
2021/07/29 01:09:36;;;;;;;;;;;17.10;73.90;;;;;;5068177;28;19912;-64
2021/07/29 01:12:01;;;;;;;;;;;17.10;74.00;;;;;;5068155;28;19978;-64
2021/07/29 01:14:27;;;;;;;;;;;17.10;74.10;;;;;;5066261;28;20284;-64
2021/07/29 01:16:52;;;;;;;;;;;17.10;74.20;;;;;;5067575;28;19940;-64
2021/07/29 01:19:19;;;;;;;;;;;17.10;74.30;;;;;;5067402;28;20007;-64
2021/07/29 01:21:45;;;;;;;;;;;17.10;74.40;;;;;;5074751;28;20430;-64
2021/07/29 01:24:10;;;;;;;;;;;17.10;74.60;;;;;;5087931;28;19983;-64
2021/07/29 01:26:36;;;;;;;;;;;17.10;74.70;;;;;;5087326;28;19916;-64
2021/07/29 01:29:02;;;;;;;;;;;17.10;74.70;;;;;;5087804;28;19970;-64
2021/07/29 01:31:27;;;;;;;;;;;17.10;74.70;;;;;;5069281;28;19959;-64
2021/07/29 01:33:54;;;;;;;;;;;17.10;74.80;;;;;;5079193;28;20372;-64
2021/07/29 01:36:19;;;;;;;;;;;17.00;74.80;;;;;;5074132;28;19916;-64
2021/07/29 01:38:45;;;;;;;;;;;17.00;74.80;;;;;;5073469;28;19928;-64
2021/07/29 01:41:11;;;;;;;;;;;17.00;75.00;;;;;;5055979;28;19923;-64
2021/07/29 01:43:36;;;;;;;;;;;17.10;75.20;;;;;;5056421;28;19917;-64
2021/07/29 01:46:02;;;;;;;;;;;17.10;75.20;;;;;;5073462;28;20350;-64
2021/07/29 01:48:28;;;;;;;;;;;17.10;75.20;;;;;;5055730;28;20007;-64
2021/07/29 01:50:54;;;;;;;;;;;17.10;75.10;;;;;;5055742;28;19912;-64
2021/07/29 01:53:20;;;;;;;;;;;17.10;75.10;;;;;;5074172;28;19977;-64
2021/07/29 01:55:46;;;;;;;;;;;17.00;75.10;;;;;;5073837;28;19917;-64
2021/07/29 01:58:12;;;;;;;;;;;17.10;75.30;;;;;;5073282;28;19955;-64
2021/07/29 02:00:39;;;;;;;;;;;17.00;75.20;;;;;;5073832;28;19912;-64
2021/07/29 02:03:04;;;;;;;;;;;17.10;75.20;;;;;;5073748;28;20050;-64
2021/07/29 02:05:30;;;;;;;;;;;17.00;75.20;;;;;;5073193;28;20005;-64
2021/07/29 02:07:56;;;;;;;;;;;16.90;75.10;;;;;;5073427;28;19921;-64
2021/07/29 02:10:21;;;;;;;;;;;16.90;75.10;;;;;;5055174;28;20003;-64
2021/07/29 02:12:47;;;;;;;;;;;16.80;75.10;;;;;;5073810;28;20027;-64
2021/07/29 02:15:13;;;;;;;;;;;16.80;75.30;;;;;;5073428;28;19974;-64
2021/07/29 02:17:38;;;;;;;;;;;16.80;75.40;;;;;;5072732;28;19916;-64
2021/07/29 02:20:04;;;;;;;;;;;16.70;75.40;;;;;;5073509;28;19920;-64
2021/07/29 02:22:30;;;;;;;;;;;16.70;75.50;;;;;;5073268;28;19927;-64
2021/07/29 02:24:55;;;;;;;;;;;16.70;75.60;;;;;;5072789;28;19920;-64
2021/07/29 02:27:23;;;;;;;;;;;16.70;75.70;;;;;;5073054;28;19924;-64
2021/07/29 02:29:53;;;;;;;;;;;16.80;75.60;;;;;;5072918;28;20004;-64
2021/07/29 02:32:18;;;;;;;;;;;16.80;75.50;;;;;;5073068;28;20268;-64
2021/07/29 02:34:44;;;;;;;;;;;16.80;75.60;;;;;;5073117;28;19973;-64
2021/07/29 02:37:09;;;;;;;;;;;16.80;75.70;;;;;;5054265;28;20408;-64
2021/07/29 02:39:37;;;;;;;;;;;16.90;75.80;;;;;;5073041;28;19917;-64
2021/07/29 02:42:03;;;;;;;;;;;16.90;75.70;;;;;;5072577;28;19921;-64
2021/07/29 02:44:29;;;;;;;;;;;17.00;75.60;;;;;;5072333;28;19916;-64
2021/07/29 02:46:54;;;;;;;;;;;17.00;75.50;;;;;;5072205;28;20311;-64
2021/07/29 02:49:20;;;;;;;;;;;17.10;75.50;;;;;;5054499;28;19917;-64
2021/07/29 02:51:46;;;;;;;;;;;17.20;75.30;;;;;;5072771;28;19920;-64
2021/07/29 02:54:11;;;;;;;;;;;17.20;75.10;;;;;;5072698;28;19916;-65
2021/07/29 02:56:37;;;;;;;;;;;17.20;75.00;;;;;;5072028;28;19917;-64
2021/07/29 02:59:02;;;;;;;;;;;17.20;74.90;;;;;;5072593;28;19969;-65
2021/07/29 03:01:28;;;;;;;;;;;17.30;74.80;;;;;;5072568;28;19920;-65
2021/07/29 03:03:54;;;;;;;;;;;17.30;74.60;;;;;;5054227;28;19920;-65
2021/07/29 03:06:20;;;;;;;;;;;17.20;74.40;;;;;;5054623;28;19921;-65
2021/07/29 03:08:45;;;;;;;;;;;17.20;74.30;;;;;;5071728;28;19928;-63
2021/07/29 03:11:11;;;;;;;;;;;17.20;74.30;;;;;;5072387;28;20007;-65
2021/07/29 03:13:36;;;;;;;;;;;17.20;74.30;;;;;;5054482;28;20376;-65
2021/07/29 03:16:02;;;;;;;;;;;17.20;74.30;;;;;;5071787;28;20045;-64
2021/07/29 03:18:27;;;;;;;;;;;17.20;74.40;;;;;;5071865;28;19969;-64
2021/07/29 03:20:53;;;;;;;;;;;17.30;74.40;;;;;;5054334;28;19966;-64
2021/07/29 03:23:19;;;;;;;;;;;17.40;74.30;;;;;;5071504;28;19920;-64
2021/07/29 03:25:51;;;;;;;;;;;17.40;74.60;;;;;;5072100;28;19972;-65
2021/07/29 03:28:17;;;;;;;;;;;17.50;73.90;;;;;;5071354;28;19966;-64
2021/07/29 03:30:43;;;;;;;;;;;17.50;73.60;;;;;;5072186;28;19923;-65
2021/07/29 03:33:10;;;;;;;;;;;17.60;73.40;;;;;;5072047;28;19916;-65
2021/07/29 03:35:39;;;;;;;;;;;17.60;73.20;;;;;;5071667;28;20291;-65
2021/07/29 03:38:05;;;;;;;;;;;17.60;73.00;;;;;;5071718;28;19920;-65
2021/07/29 03:40:31;;;;;;;;;;;17.70;72.90;;;;;;5071494;28;20003;-64
2021/07/29 03:42:59;;;;;;;;;;;17.70;72.70;;;;;;5071784;28;20399;-64
2021/07/29 03:45:25;;;;;;;;;;;17.70;72.50;;;;;;5071682;28;19924;-64
2021/07/29 03:47:50;;;;;;;;;;;17.70;72.40;;;;;;5071197;28;19917;-64
2021/07/29 03:50:16;;;;;;;;;;;17.70;72.40;;;;;;5071927;28;20265;-64
2021/07/29 03:52:42;;;;;;;;;;;17.70;72.20;;;;;;5071707;28;19995;-64
2021/07/29 03:55:07;;;;;;;;;;;17.70;72.10;;;;;;5071165;28;20046;-65
2021/07/29 03:57:33;;;;;;;;;;;17.70;72.10;;;;;;5071037;28;20003;-65
2021/07/29 04:00:01;;;;;;;;;;;17.70;72.00;;;;;;5071141;28;19916;-64
2021/07/29 04:02:26;;;;;;;;;;;17.70;72.00;;;;;;5053440;28;19927;-64
2021/07/29 04:04:52;;;;;;;;;;;17.70;71.90;;;;;;5071575;28;20007;-65
2021/07/29 04:07:17;;;;;;;;;;;17.70;71.90;;;;;;5070718;28;19912;-64
2021/07/29 04:09:43;;;;;;;;;;;17.70;71.80;;;;;;5071456;28;19921;-64
2021/07/29 04:12:08;;;;;;;;;;;17.70;71.80;;;;;;5071528;28;19917;-65
2021/07/29 04:14:34;;;;;;;;;;;17.70;71.70;;;;;;5071057;28;19978;-65
2021/07/29 04:16:59;;;;;;;;;;;17.70;71.70;;;;;;5071069;28;19917;-64
2021/07/29 04:19:25;;;;;;;;;;;17.70;71.70;;;;;;5071456;28;19917;-65
2021/07/29 04:21:50;;;;;;;;;;;17.70;71.60;;;;;;5070832;28;20376;-64
2021/07/29 04:24:17;;;;;;;;;;;17.70;71.40;;;;;;5071466;28;19944;-65
2021/07/29 04:26:43;;;;;;;;;;;17.70;71.30;;;;;;5070591;28;19970;-64
2021/07/29 04:29:09;;;;;;;;;;;17.70;71.30;;;;;;5071173;28;20377;-65
2021/07/29 04:31:34;;;;;;;;;;;17.70;71.20;;;;;;5071196;28;19923;-66
2021/07/29 04:34:00;;;;;;;;;;;17.60;71.30;;;;;;5071037;28;19926;-64
2021/07/29 04:36:25;;;;;;;;;;;17.60;71.40;;;;;;5071179;28;20380;-65
2021/07/29 04:38:51;;;;;;;;;;;17.60;71.50;;;;;;5070989;28;20391;-65
2021/07/29 04:41:16;;;;;;;;;;;17.60;71.60;;;;;;5070678;28;20299;-65
2021/07/29 04:43:42;;;;;;;;;;;17.70;71.70;;;;;;5053232;28;20400;-65
2021/07/29 04:46:07;;;;;;;;;;;17.80;71.60;;;;;;5070617;28;19924;-64
2021/07/29 04:48:33;;;;;;;;;;;18.00;71.60;;;;;;5070884;28;20007;-65
2021/07/29 04:51:02;;;;;;;;;;;18.10;71.40;;;;;;5070959;28;20361;-65
2021/07/29 04:53:27;;;;;;;;;;;18.20;70.80;;;;;;5052687;28;19943;-64
2021/07/29 04:55:53;;;;;;;;;;;18.10;70.40;;;;;;5071006;28;19975;-65
2021/07/29 04:58:19;;;;;;;;;;;18.10;70.40;;;;;;5052964;28;19921;-65
2021/07/29 05:00:44;;;;;;;;;;;18.00;70.30;;;;;;5070488;28;19916;-65
2021/07/29 05:03:10;;;;;;;;;;;17.90;70.40;;;;;;5071049;28;19921;-61
2021/07/29 05:05:35;;;;;;;;;;;17.90;70.60;;;;;;5070334;28;19920;-61
2021/07/29 05:08:01;;;;;;;;;;;17.90;70.90;;;;;;5070882;28;20296;-61
2021/07/29 05:10:26;;;;;;;;;;;17.90;70.80;;;;;;5074686;28;20032;-61
2021/07/29 05:12:53;;;;;;;;;;;17.90;70.70;;;;;;5074130;28;19948;-61
2021/07/29 05:15:18;;;;;;;;;;;17.80;70.70;;;;;;5074563;28;19952;-61
2021/07/29 05:17:44;;;;;;;;;;;17.80;70.90;;;;;;5074209;28;19950;-61
2021/07/29 05:20:10;;;;;;;;;;;17.90;70.90;;;;;;5074162;28;19951;-61
2021/07/29 05:22:36;;;;;;;;;;;17.90;70.80;;;;;;5074294;28;19960;-61
2021/07/29 05:25:01;;;;;;;;;;;18.00;70.90;;;;;;5055855;28;20297;-61
2021/07/29 05:27:27;;;;;;;;;;;18.10;70.70;;;;;;5056176;28;19935;-61
2021/07/29 05:29:53;;;;;;;;;;;18.20;70.60;;;;;;5074288;28;20342;-61
2021/07/29 05:32:18;;;;;;;;;;;18.20;70.40;;;;;;5073862;28;20273;-61
2021/07/29 05:34:44;;;;;;;;;;;18.30;70.20;;;;;;5074319;28;19920;-60
2021/07/29 05:37:09;;;;;;;;;;;18.40;70.00;;;;;;5073390;28;19916;-61
2021/07/29 05:39:35;;;;;;;;;;;18.50;69.70;;;;;;5074064;28;20336;-61
2021/07/29 05:42:01;;;;;;;;;;;18.50;69.40;;;;;;5074154;28;20392;-61
2021/07/29 05:44:27;;;;;;;;;;;18.50;69.00;;;;;;5055801;28;19923;-62
2021/07/29 05:46:53;;;;;;;;;;;18.60;68.70;;;;;;5073663;28;19916;-61
2021/07/29 05:49:18;;;;;;;;;;;18.80;68.90;;;;;;5056162;28;19917;-60
2021/07/29 05:51:44;;;;;;;;;;;18.90;68.60;;;;;;5073380;28;20050;-61
2021/07/29 05:54:09;;;;;;;;;;;19.20;68.70;;;;;;5055934;28;19923;-61
2021/07/29 05:56:35;;;;;;;;;;;19.50;68.30;;;;;;5073845;28;19946;-61
2021/07/29 05:59:00;;;;;;;;;;;19.80;68.10;;;;;;5073141;28;20003;-61
2021/07/29 06:01:26;;;;;;;;;;;20.00;67.60;;;;;;5073733;28;19920;-61
2021/07/29 06:03:51;;;;;;;;;;;20.50;68.20;;;;;;5055532;28;20377;-62
2021/07/29 06:06:17;;;;;;;;;;;20.90;66.60;;;;;;5055724;28;20296;-61
2021/07/29 06:08:44;;;;;;;;;;;21.50;67.00;;;;;;5055396;28;19939;-61
2021/07/29 06:11:09;;;;;;;;;;;22.80;68.90;;;;;;5073246;28;20323;-64
2021/07/29 06:13:35;;;;;;;;;;;23.80;65.50;;;;;;5073520;28;20008;-61
2021/07/29 06:16:02;;;;;;;;;;;24.10;62.10;;;;;;5055501;28;19970;-61
2021/07/29 06:18:28;;;;;;;;;;;24.50;60.10;;;;;;5072689;28;20273;-61
2021/07/29 06:20:54;;;;;;;;;;;23.90;56.80;;;;;;5073114;28;19999;-61
2021/07/29 06:23:19;;;;;;;;;;;23.20;56.40;;;;;;5072672;28;19974;-63
2021/07/29 06:25:45;;;;;;;;;;;23.00;58.80;;;;;;5073209;28;19970;-61
2021/07/29 06:28:15;;;;;;;;;;;24.20;63.00;;;;;;5072999;28;19923;-62
2021/07/29 06:30:43;;;;;;;;;;;25.70;59.30;;;;;;5072778;28;20280;-61
2021/07/29 06:33:09;;;;;;;;;;;26.00;54.70;;;;;;5073217;28;20331;-61
2021/07/29 06:35:34;;;;;;;;;;;26.80;55.90;;;;;;5072614;28;19916;-62
2021/07/29 06:38:00;;;;;;;;;;;27.50;52.50;;;;;;5072733;28;20476;-62
2021/07/29 06:40:25;;;;;;;;;;;27.40;50.30;;;;;;5073075;28;19927;-61
2021/07/29 06:42:51;;;;;;;;;;;27.90;51.70;;;;;;5072443;28;19925;-62
2021/07/29 06:45:17;;;;;;;;;;;28.30;49.00;;;;;;5072837;28;19970;-61
2021/07/29 06:47:42;;;;;;;;;;;27.50;45.80;;;;;;5055357;28;19970;-69
2021/07/29 06:50:08;;;;;;;;;;;26.30;45.50;;;;;;5072149;28;20304;-68
2021/07/29 06:52:33;;;;;;;;;;;24.80;45.50;;;;;;5072711;28;20377;-68
2021/07/29 06:54:59;;;;;;;;;;;23.50;47.30;;;;;;5072688;28;19966;-68
2021/07/29 06:57:25;;;;;;;;;;;22.70;48.70;;;;;;5071830;28;20037;-68
2021/07/29 06:59:50;;;;;;;;;;;21.90;49.80;;;;;;5072515;28;20003;-68
2021/07/29 07:02:16;;;;;;;;;;;21.40;51.30;;;;;;5072437;28;19925;-68
2021/07/29 07:04:41;;;;;;;;;;;21.10;52.40;;;;;;5072362;28;19978;-67
2021/07/29 07:07:16;;;;;;;;;;;21.40;54.10;;;;;;5072097;28;20400;-68
2021/07/29 07:09:42;;;;;;;;;;;22.50;55.40;;;;;;5072022;28;20296;-68
2021/07/29 07:12:08;;;;;;;;;;;22.80;52.10;;;;;;5072362;28;19912;-68
2021/07/29 07:14:34;;;;;;;;;;;22.50;51.20;;;;;;5072300;28;19916;-68
2021/07/29 07:16:59;;;;;;;;;;;22.20;51.10;;;;;;5071883;28;20296;-67
2021/07/29 07:19:25;;;;;;;;;;;21.70;51.30;;;;;;5072301;28;19916;-67
2021/07/29 07:21:50;;;;;;;;;;;21.30;52.10;;;;;;5071622;28;19921;-68
2021/07/29 07:24:16;;;;;;;;;;;21.90;57.00;;;;;;5072251;28;19930;-68
2021/07/29 07:26:41;;;;;;;;;;;22.80;54.50;;;;;;5053988;28;20400;-67
2021/07/29 07:29:07;;;;;;;;;;;23.10;52.40;;;;;;5071579;28;19916;-67
2021/07/29 07:31:33;;;;;;;;;;;22.70;50.40;;;;;;5071473;28;20030;-68
2021/07/29 07:34:00;;;;;;;;;;;23.50;55.60;;;;;;5053860;28;19970;-69
2021/07/29 07:36:26;;;;;;;;;;;25.60;54.80;;;;;;5071699;28;19924;-69
2021/07/29 07:38:54;;;;;;;;;;;27.60;51.50;;;;;;5071653;28;19916;-69
2021/07/29 07:41:20;;;;;;;;;;;28.30;47.70;;;;;;5071281;28;20365;-68
2021/07/29 07:43:46;;;;;;;;;;;28.50;44.70;;;;;;5071905;28;19966;-69
2021/07/29 07:46:12;;;;;;;;;;;28.90;45.80;;;;;;5053724;28;19917;-69
2021/07/29 07:48:37;;;;;;;;;;;28.90;42.60;;;;;;5070940;28;19916;-69
2021/07/29 07:51:03;;;;;;;;;;;29.50;42.80;;;;;;5053735;28;20415;-69
2021/07/29 07:53:29;;;;;;;;;;;30.50;42.70;;;;;;5053739;28;19966;-68
2021/07/29 07:55:56;;;;;;;;;;;31.60;42.00;;;;;;5071311;28;19916;-68
2021/07/29 07:58:21;;;;;;;;;;;32.80;40.20;;;;;;5071321;28;19912;-68
2021/07/29 08:00:47;;;;;;;;;;;32.40;36.40;;;;;;5071083;28;19924;-66
2021/07/29 08:03:14;;;;;;;;;;;31.10;35.40;;;;;;5071373;28;19924;-61
2021/07/29 08:05:39;;;;;;;;;;;29.50;35.40;;;;;;5071352;28;19938;-61
2021/07/29 08:08:08;;;;;;;;;;;27.90;36.10;;;;;;5052878;28;19924;-61
2021/07/29 08:10:37;;;;;;;;;;;27.00;38.10;;;;;;5071625;28;20009;-61
2021/07/29 08:13:03;;;;;;;;;;;27.20;39.70;;;;;;5071250;28;19920;-61
2021/07/29 08:15:29;;;;;;;;;;;28.30;39.50;;;;;;5071516;28;19999;-61
2021/07/29 08:17:55;;;;;;;;;;;28.80;38.30;;;;;;5071041;28;19999;-61
2021/07/29 08:20:24;;;;;;;;;;;29.20;39.00;;;;;;5070833;28;19923;-63
2021/07/29 08:22:53;;;;;;;;;;;30.80;38.90;;;;;;5053246;28;19955;-61
2021/07/29 08:25:20;;;;;;;;;;;30.80;34.80;;;;;;5070789;28;20266;-61
2021/07/29 08:27:46;;;;;;;;;;;29.00;34.00;;;;;;5070977;28;19917;-61
2021/07/29 08:30:12;;;;;;;;;;;27.70;36.20;;;;;;5071248;28;19996;-61
2021/07/29 08:32:37;;;;;;;;;;;28.70;40.30;;;;;;5070944;28;20024;-61
2021/07/29 08:35:03;;;;;;;;;;;31.50;39.00;;;;;;5071249;28;20436;-61
2021/07/29 08:37:29;;;;;;;;;;;33.60;36.50;;;;;;5070399;28;20304;-62
2021/07/29 08:39:54;;;;;;;;;;;34.80;33.60;;;;;;5053225;28;19955;-61
2021/07/29 08:42:20;;;;;;;;;;;34.40;31.90;;;;;;5071263;28;19921;-61
2021/07/29 08:44:45;;;;;;;;;;;34.70;32.80;;;;;;5072256;28;19920;-61
2021/07/29 08:47:13;;;;;;;;;;;35.90;32.20;;;;;;5073247;28;19917;-61
2021/07/29 08:49:39;;;;;;;;;;;36.80;29.70;;;;;;5051429;28;19998;-61
2021/07/29 08:52:05;;;;;;;;;;;37.40;29.50;;;;;;5069632;28;19927;-61
2021/07/29 08:54:31;;;;;;;;;;;38.10;29.00;;;;;;5071979;28;19917;-61
2021/07/29 08:56:57;;;;;;;;;;;38.70;28.20;;;;;;5074286;28;19917;-61
2021/07/29 08:59:23;;;;;;;;;;;39.50;28.00;;;;;;5074958;28;20003;-61
2021/07/29 09:01:49;;;;;;;;;;;40.00;26.80;;;;;;5070073;28;20392;-61
2021/07/29 09:04:15;;;;;;;;;;;39.90;26.60;;;;;;5067254;28;19920;-61
2021/07/29 09:07:01;;;;;;;;;;;37.90;25.40;;;;;;5070965;28;19917;-61
2021/07/29 09:09:37;;;;;;;;;;;35.40;26.50;;;;;;5086649;28;20277;-61
2021/07/29 09:12:12;;;;;;;;;;;35.10;28.40;;;;;;5092473;28;19966;-61
2021/07/29 09:28:32;;;;;;;;;;;35.40;29.40;;;;;;5093673;28;20391;-61
2021/07/29 09:30:58;;;;;;;;;;;38.40;28.40;;;;;;5094225;28;19916;-61
2021/07/29 09:33:24;;;;;;;;;;;39.50;26.00;;;;;;5093732;28;19916;-61
2021/07/29 09:35:53;;;;;;;;;;;38.40;24.80;;;;;;5094062;28;19916;-61
2021/07/29 09:38:21;;;;;;;;;;;36.70;24.80;;;;;;5094030;28;19916;-61
2021/07/29 09:40:55;;;;;;;;;;;34.40;25.30;;;;;;5094123;28;20010;-61
2021/07/29 09:43:22;;;;;;;;;;;32.70;26.70;;;;;;5094055;28;19941;-61
2021/07/29 09:45:49;;;;;;;;;;;33.00;28.20;;;;;;5075542;28;19912;-61
2021/07/29 09:48:14;;;;;;;;;;;35.10;28.30;;;;;;5075816;28;20417;-60
2021/07/29 09:50:40;;;;;;;;;;;34.50;25.80;;;;;;5093560;28;19994;-61
2021/07/29 09:53:06;;;;;;;;;;;32.00;26.00;;;;;;5093925;28;19916;-62
2021/07/29 09:55:32;;;;;;;;;;;29.70;27.30;;;;;;5093497;28;19916;-66
2021/07/29 09:58:01;;;;;;;;;;;28.70;29.20;;;;;;5093042;28;19920;-65
2021/07/29 10:00:27;;;;;;;;;;;28.20;29.30;;;;;;5093862;28;19920;-65
2021/07/29 10:02:53;;;;;;;;;;;27.40;29.50;;;;;;5093298;28;19920;-65
2021/07/29 10:08:54;;;;;;;;;;;25.90;31.50;;;;;;5093182;28;19923;-65
2021/07/29 10:15:20;;;;;;;;;;;25.20;32.70;;;;;;5092942;28;19970;-65
2021/07/29 10:17:52;;;;;;;;;;;25.60;35.60;;;;;;5092611;28;19916;-66
2021/07/29 10:20:22;;;;;;;;;;;28.10;34.90;;;;;;5093428;28;19917;-66
2021/07/29 10:22:49;;;;;;;;;;;29.50;34.00;;;;;;5092636;28;19927;-64
2021/07/29 10:25:15;;;;;;;;;;;31.60;32.60;;;;;;5092787;28;19981;-64
2021/07/29 10:28:01;;;;;;;;;;;32.30;30.30;;;;;;5093090;28;19916;-65
2021/07/29 10:30:28;;;;;;;;;;;33.20;30.30;;;;;;5092891;28;19920;-65
2021/07/29 10:32:54;;;;;;;;;;;35.00;29.80;;;;;;5093357;28;19922;-64
2021/07/29 10:35:26;;;;;;;;;;;34.00;27.80;;;;;;5092588;28;19916;-64
2021/07/29 10:37:54;;;;;;;;;;;32.10;27.70;;;;;;5092915;28;19924;-64
2021/07/29 10:40:36;;;;;;;;;;;31.70;29.50;;;;;;5074756;28;19912;-65
2021/07/29 10:43:20;;;;;;;;;;;33.70;29.90;;;;;;5092871;28;20304;-64
2021/07/29 10:45:52;;;;;;;;;;;35.80;28.70;;;;;;5092456;28;20207;-65
2021/07/29 10:48:36;;;;;;;;;;;38.20;28.30;;;;;;5092729;28;20383;-65
2021/07/29 10:51:11;;;;;;;;;;;39.00;27.00;;;;;;5092715;28;19917;-65
2021/07/29 10:53:41;;;;;;;;;;;36.90;25.30;;;;;;5093048;28;19917;-64
2021/07/29 10:56:07;;;;;;;;;;;33.70;25.60;;;;;;5092355;28;19916;-63
2021/07/29 10:58:42;;;;;;;;;;;30.80;27.00;;;;;;5074533;28;19923;-64
2021/07/29 11:01:10;;;;;;;;;;;28.90;28.40;;;;;;5092347;28;20213;-64
2021/07/29 11:03:46;;;;;;;;;;;29.30;30.90;;;;;;5092752;28;19923;-65
2021/07/29 11:06:14;;;;;;;;;;;31.30;31.10;;;;;;5091244;28;19916;-64
2021/07/29 11:08:40;;;;;;;;;;;34.50;30.00;;;;;;5082550;28;19917;-64
2021/07/29 11:11:06;;;;;;;;;;;35.20;27.60;;;;;;5071011;28;20004;-65
2021/07/29 11:13:32;;;;;;;;;;;35.50;27.80;;;;;;5071862;28;19916;-63
2021/07/29 11:15:58;;;;;;;;;;;34.00;26.10;;;;;;5062644;28;19970;-64
2021/07/29 11:18:24;;;;;;;;;;;31.60;26.70;;;;;;5060390;28;19924;-64
2021/07/29 11:20:50;;;;;;;;;;;29.70;27.90;;;;;;5061201;28;19916;-63
2021/07/29 11:23:36;;;;;;;;;;;27.90;28.90;;;;;;5054737;28;19952;-63
2021/07/29 11:26:03;;;;;;;;;;;26.60;30.10;;;;;;5060197;28;19917;-63
2021/07/29 11:28:29;;;;;;;;;;;25.70;31.50;;;;;;5059461;28;19917;-63
2021/07/29 11:30:55;;;;;;;;;;;24.80;32.70;;;;;;5062041;28;20475;-65
2021/07/29 11:33:24;;;;;;;;;;;24.60;34.60;;;;;;5051979;28;19917;-66
2021/07/29 11:35:50;;;;;;;;;;;26.30;36.90;;;;;;5033991;28;20397;-63
2021/07/29 11:38:17;;;;;;;;;;;29.20;36.20;;;;;;5051009;28;19923;-64
2021/07/29 11:40:43;;;;;;;;;;;32.30;34.30;;;;;;5051800;28;19917;-64
2021/07/29 11:43:25;;;;;;;;;;;34.60;31.50;;;;;;5051073;28;19928;-64
2021/07/29 11:45:51;;;;;;;;;;;35.60;29.10;;;;;;5054191;28;19917;-65
2021/07/29 11:48:23;;;;;;;;;;;35.90;28.50;;;;;;5050949;28;19920;-64
2021/07/29 11:50:49;;;;;;;;;;;36.10;28.50;;;;;;5053664;28;19917;-64
2021/07/29 11:53:16;;;;;;;;;;;36.00;27.60;;;;;;5042709;28;20011;-64
2021/07/29 11:55:51;;;;;;;;;;;35.10;27.20;;;;;;5061514;28;19940;-65
2021/07/29 11:58:17;;;;;;;;;;;34.20;27.50;;;;;;5056457;28;19924;-64
2021/07/29 12:00:45;;;;;;;;;;;33.30;27.50;;;;;;5051100;28;19916;-63
2021/07/29 12:03:12;;;;;;;;;;;32.10;28.00;;;;;;5055415;28;19920;-64
2021/07/29 12:05:41;;;;;;;;;;;31.40;29.20;;;;;;5046987;28;19986;-62
2021/07/29 12:08:07;;;;;;;;;;;31.30;29.30;;;;;;5061849;28;20376;-60
2021/07/29 12:10:35;;;;;;;;;;;30.60;29.20;;;;;;5051142;28;19916;-60
2021/07/29 12:13:01;;;;;;;;;;;29.50;29.50;;;;;;5069850;28;20379;-61
2021/07/29 12:15:27;;;;;;;;;;;28.70;30.40;;;;;;5063473;28;19921;-60
2021/07/29 12:18:11;;;;;;;;;;;27.80;30.80;;;;;;5050921;28;19971;-63
2021/07/29 12:20:41;;;;;;;;;;;27.20;31.30;;;;;;5060224;28;20350;-63
2021/07/29 12:23:13;;;;;;;;;;;26.70;32.00;;;;;;5049916;28;19931;-63
2021/07/29 12:25:39;;;;;;;;;;;26.80;33.30;;;;;;5050530;28;19917;-63
2021/07/29 12:28:04;;;;;;;;;;;26.40;32.60;;;;;;5050362;28;19927;-63
2021/07/29 12:30:30;;;;;;;;;;;26.10;33.10;;;;;;5050404;28;20123;-63
2021/07/29 12:33:13;;;;;;;;;;;25.90;33.60;;;;;;5050787;28;20331;-62
2021/07/29 12:35:40;;;;;;;;;;;25.50;33.90;;;;;;5050321;28;19923;-62
2021/07/29 12:38:05;;;;;;;;;;;25.20;34.60;;;;;;5050889;28;19920;-63
2021/07/29 12:40:32;;;;;;;;;;;25.20;35.10;;;;;;5050571;28;19920;-63
2021/07/29 12:43:16;;;;;;;;;;;25.40;35.90;;;;;;5033189;28;20409;-62
2021/07/29 12:45:45;;;;;;;;;;;25.70;35.60;;;;;;5050507;28;19917;-63
2021/07/29 12:48:11;;;;;;;;;;;26.10;35.10;;;;;;5063992;22;20004;-62
2021/07/29 12:50:39;;;;;;;;;;;26.00;34.00;;;;;;5032920;28;20008;-62
2021/07/29 12:53:09;;;;;;;;;;;26.10;33.60;;;;;;5051062;28;19967;-62
2021/07/29 12:55:38;;;;;;;;;;;26.10;32.90;;;;;;5050805;28;19974;-62
2021/07/29 12:58:04;;;;;;;;;;;26.20;32.60;;;;;;5050237;28;19916;-62
2021/07/29 13:00:29;;;;;;;;;;;26.10;32.40;;;;;;5050923;28;20399;-62
2021/07/29 13:02:55;;;;;;;;;;;25.90;32.20;;;;;;5050680;28;19928;-62
2021/07/29 13:05:21;;;;;;;;;;;25.90;32.70;;;;;;5050090;28;19925;-62
2021/07/29 13:07:48;;;;;;;;;;;25.90;32.70;;;;;;5050448;28;20012;-62
2021/07/29 13:10:14;;;;;;;;;;;26.00;33.50;;;;;;5049109;28;19917;-62
2021/07/29 13:12:39;;;;;;;;;;;26.10;33.30;;;;;;5050806;28;19924;-61
2021/07/29 13:15:05;;;;;;;;;;;25.90;33.30;;;;;;5050620;28;19917;-61
2021/07/29 13:17:31;;;;;;;;;;;25.50;33.80;;;;;;5049801;28;19956;-61
2021/07/29 13:19:59;;;;;;;;;;;25.00;34.20;;;;;;5050661;28;19916;-61
2021/07/29 13:22:25;;;;;;;;;;;24.60;35.00;;;;;;5050619;28;19921;-61
2021/07/29 13:24:51;;;;;;;;;;;24.50;36.00;;;;;;5050214;28;19928;-62
2021/07/29 13:27:17;;;;;;;;;;;24.40;36.10;;;;;;5048917;28;19917;-61
2021/07/29 13:29:43;;;;;;;;;;;24.10;36.80;;;;;;5049767;28;19920;-61
2021/07/29 13:32:08;;;;;;;;;;;23.80;37.30;;;;;;5053029;28;19921;-61
2021/07/29 13:34:34;;;;;;;;;;;23.50;38.10;;;;;;5054204;28;19971;-61
2021/07/29 13:36:59;;;;;;;;;;;23.40;39.10;;;;;;5051907;28;20291;-61
2021/07/29 13:39:25;;;;;;;;;;;23.30;39.70;;;;;;5052702;28;19916;-61
2021/07/29 13:41:51;;;;;;;;;;;23.20;40.00;;;;;;5053444;28;19921;-61
2021/07/29 13:44:20;;;;;;;;;;;23.10;40.20;;;;;;5053877;28;19917;-61
2021/07/29 13:46:46;;;;;;;;;;;22.80;40.50;;;;;;5053436;28;19956;-61
2021/07/29 13:49:12;;;;;;;;;;;22.50;41.50;;;;;;5053339;28;19916;-61
2021/07/29 13:51:37;;;;;;;;;;;22.40;42.60;;;;;;5053730;28;20422;-61
2021/07/29 13:54:03;;;;;;;;;;;22.50;43.00;;;;;;5053799;28;19940;-61
2021/07/29 13:56:29;;;;;;;;;;;22.70;42.90;;;;;;5051989;28;20008;-61
2021/07/29 13:58:55;;;;;;;;;;;22.60;42.60;;;;;;5053423;28;19966;-61
2021/07/29 14:01:22;;;;;;;;;;;22.30;43.20;;;;;;5053404;28;19917;-61
2021/07/29 14:03:47;;;;;;;;;;;21.90;44.40;;;;;;5053404;28;20010;-61
2021/07/29 14:06:13;;;;;;;;;;;21.40;46.10;;;;;;5052150;28;19972;-61
2021/07/29 14:08:39;;;;;;;;;;;21.10;48.10;;;;;;5052756;28;19924;-60
2021/07/29 14:11:04;;;;;;;;;;;21.00;49.90;;;;;;5053553;28;20376;-61
2021/07/29 14:13:30;;;;;;;;;;;21.10;50.80;;;;;;5053455;28;19916;-61
2021/07/29 14:15:56;;;;;;;;;;;21.10;50.80;;;;;;5052981;28;19924;-60
2021/07/29 14:18:21;;;;;;;;;;;21.10;51.70;;;;;;5052975;28;19916;-61
2021/07/29 14:20:58;;;;;;;;;;;20.80;52.20;;;;;;5053019;28;19921;-61
2021/07/29 14:23:24;;;;;;;;;;;20.60;53.40;;;;;;5051915;28;20353;-61
2021/07/29 14:25:50;;;;;;;;;;;20.50;54.60;;;;;;5051829;28;19963;-61
2021/07/29 14:28:16;;;;;;;;;;;20.60;55.60;;;;;;5052385;28;20369;-64
2021/07/29 14:30:42;;;;;;;;;;;20.90;56.40;;;;;;5053137;28;20388;-61
2021/07/29 14:33:08;;;;;;;;;;;21.50;56.80;;;;;;5052569;28;19916;-62
2021/07/29 14:35:34;;;;;;;;;;;21.90;56.20;;;;;;5053170;28;19924;-61
2021/07/29 14:38:02;;;;;;;;;;;22.20;55.00;;;;;;5052520;28;19917;-61